Terminal Aerodrome Forecast
Issued by NWS

Home | Current Version | Previous Version | Text Only | Print | Product List | Glossary On
Versions: 1 2 3 4 5 6 7 8 9 10 11 12 13 14 15 16 17 18 19 20
000
FTUS41 KBTV 241153 CCA
TAFMSS
TAF COR
KMSS 241153Z 2412/2512 21005KT P6SM OVC040
      TEMPO 2412/2414 BKN025 OVC040
     FM241500 21009G18KT P6SM OVC040
     FM242300 20009G15KT P6SM BKN120 WS020/22040KT
     FM251000 21009G18KT P6SM VCSH BKN130 WS020/22045KT=

USA.gov is the U.S. government's official web portal to all federal, state and local government web resources and services.